sensor_id;sensor_type;location;lat;lon;timestamp;P1;durP1;ratioP1;P2;durP2;ratioP2
3407;SDS011;1717;50.240;8.406;2023-04-26T00:00:00;4.00;;;2.37;;
3407;SDS011;1717;50.240;8.406;2023-04-26T00:02:30;3.23;;;2.20;;
3407;SDS011;1717;50.240;8.406;2023-04-26T00:04:58;2.40;;;1.97;;
3407;SDS011;1717;50.240;8.406;2023-04-26T00:07:26;4.47;;;2.50;;
3407;SDS011;1717;50.240;8.406;2023-04-26T00:09:54;2.60;;;2.40;;
3407;SDS011;1717;50.240;8.406;2023-04-26T00:12:22;10.57;;;3.57;;
3407;SDS011;1717;50.240;8.406;2023-04-26T00:14:49;4.53;;;2.53;;
3407;SDS011;1717;50.240;8.406;2023-04-26T00:17:16;2.27;;;1.87;;
3407;SDS011;1717;50.240;8.406;2023-04-26T00:19:43;4.80;;;2.40;;
3407;SDS011;1717;50.240;8.406;2023-04-26T00:22:10;3.23;;;2.00;;
3407;SDS011;1717;50.240;8.406;2023-04-26T00:24:37;2.43;;;2.10;;
3407;SDS011;1717;50.240;8.406;2023-04-26T00:27:04;5.10;;;2.30;;
3407;SDS011;1717;50.240;8.406;2023-04-26T00:29:35;3.20;;;2.20;;
3407;SDS011;1717;50.240;8.406;2023-04-26T00:32:02;2.73;;;1.77;;
3407;SDS011;1717;50.240;8.406;2023-04-26T00:34:33;4.53;;;2.10;;
3407;SDS011;1717;50.240;8.406;2023-04-26T00:37:00;7.00;;;2.27;;
3407;SDS011;1717;50.240;8.406;2023-04-26T00:39:28;4.93;;;2.47;;
3407;SDS011;1717;50.240;8.406;2023-04-26T00:41:55;3.80;;;2.13;;
3407;SDS011;1717;50.240;8.406;2023-04-26T00:44:22;2.27;;;2.07;;
3407;SDS011;1717;50.240;8.406;2023-04-26T00:46:51;5.10;;;2.33;;
3407;SDS011;1717;50.240;8.406;2023-04-26T00:49:19;4.90;;;2.63;;
3407;SDS011;1717;50.240;8.406;2023-04-26T00:51:48;2.10;;;1.83;;
3407;SDS011;1717;50.240;8.406;2023-04-26T00:54:17;3.10;;;2.20;;
3407;SDS011;1717;50.240;8.406;2023-04-26T00:56:46;2.23;;;2.00;;
3407;SDS011;1717;50.240;8.406;2023-04-26T00:59:15;4.80;;;2.17;;
3407;SDS011;1717;50.240;8.406;2023-04-26T01:01:43;4.00;;;2.30;;
3407;SDS011;1717;50.240;8.406;2023-04-26T01:04:11;3.33;;;2.20;;
3407;SDS011;1717;50.240;8.406;2023-04-26T01:06:39;2.20;;;2.00;;
3407;SDS011;1717;50.240;8.406;2023-04-26T01:09:06;5.23;;;2.10;;
3407;SDS011;1717;50.240;8.406;2023-04-26T01:11:35;3.30;;;2.13;;
3407;SDS011;1717;50.240;8.406;2023-04-26T01:14:02;4.87;;;2.03;;
3407;SDS011;1717;50.240;8.406;2023-04-26T01:16:30;2.30;;;1.90;;
3407;SDS011;1717;50.240;8.406;2023-04-26T01:19:05;5.10;;;2.20;;
3407;SDS011;1717;50.240;8.406;2023-04-26T01:21:34;4.13;;;2.27;;
3407;SDS011;1717;50.240;8.406;2023-04-26T01:24:03;3.00;;;2.17;;
3407;SDS011;1717;50.240;8.406;2023-04-26T01:26:31;5.90;;;2.10;;
3407;SDS011;1717;50.240;8.406;2023-04-26T01:28:58;2.60;;;2.20;;
3407;SDS011;1717;50.240;8.406;2023-04-26T01:31:25;2.73;;;2.50;;
3407;SDS011;1717;50.240;8.406;2023-04-26T01:33:52;4.70;;;2.03;;
3407;SDS011;1717;50.240;8.406;2023-04-26T01:36:19;5.20;;;2.73;;
3407;SDS011;1717;50.240;8.406;2023-04-26T01:38:46;3.13;;;2.20;;
3407;SDS011;1717;50.240;8.406;2023-04-26T01:41:14;5.37;;;2.53;;
3407;SDS011;1717;50.240;8.406;2023-04-26T01:43:41;4.60;;;2.00;;
3407;SDS011;1717;50.240;8.406;2023-04-26T01:46:07;3.50;;;2.00;;
3407;SDS011;1717;50.240;8.406;2023-04-26T01:48:35;4.77;;;2.40;;
3407;SDS011;1717;50.240;8.406;2023-04-26T01:51:01;5.67;;;2.90;;
3407;SDS011;1717;50.240;8.406;2023-04-26T01:53:28;2.83;;;2.07;;
3407;SDS011;1717;50.240;8.406;2023-04-26T01:55:55;3.50;;;1.83;;
3407;SDS011;1717;50.240;8.406;2023-04-26T01:58:26;4.40;;;2.30;;
3407;SDS011;1717;50.240;8.406;2023-04-26T02:00:53;5.80;;;2.57;;
3407;SDS011;1717;50.240;8.406;2023-04-26T02:03:20;4.53;;;2.50;;
3407;SDS011;1717;50.240;8.406;2023-04-26T02:05:47;2.53;;;1.90;;
3407;SDS011;1717;50.240;8.406;2023-04-26T02:08:13;2.93;;;1.83;;
3407;SDS011;1717;50.240;8.406;2023-04-26T02:10:40;7.03;;;2.20;;
3407;SDS011;1717;50.240;8.406;2023-04-26T02:13:07;2.00;;;1.53;;
3407;SDS011;1717;50.240;8.406;2023-04-26T02:15:35;2.23;;;2.03;;
3407;SDS011;1717;50.240;8.406;2023-04-26T02:18:02;2.87;;;1.83;;
3407;SDS011;1717;50.240;8.406;2023-04-26T02:20:29;4.00;;;1.93;;
3407;SDS011;1717;50.240;8.406;2023-04-26T02:22:56;3.10;;;2.13;;
3407;SDS011;1717;50.240;8.406;2023-04-26T02:25:23;2.37;;;2.17;;
3407;SDS011;1717;50.240;8.406;2023-04-26T02:27:50;4.20;;;2.47;;
3407;SDS011;1717;50.240;8.406;2023-04-26T02:30:17;7.00;;;2.53;;
3407;SDS011;1717;50.240;8.406;2023-04-26T02:32:45;3.30;;;2.30;;
3407;SDS011;1717;50.240;8.406;2023-04-26T02:35:12;5.37;;;1.93;;
3407;SDS011;1717;50.240;8.406;2023-04-26T02:37:39;3.40;;;2.50;;
3407;SDS011;1717;50.240;8.406;2023-04-26T02:40:07;3.20;;;2.40;;
3407;SDS011;1717;50.240;8.406;2023-04-26T02:42:35;2.60;;;1.90;;
3407;SDS011;1717;50.240;8.406;2023-04-26T02:45:02;5.33;;;2.80;;
3407;SDS011;1717;50.240;8.406;2023-04-26T02:47:31;3.03;;;2.00;;
3407;SDS011;1717;50.240;8.406;2023-04-26T02:49:59;5.57;;;2.57;;
3407;SDS011;1717;50.240;8.406;2023-04-26T02:52:26;3.10;;;2.10;;
3407;SDS011;1717;50.240;8.406;2023-04-26T02:54:53;5.43;;;2.30;;
3407;SDS011;1717;50.240;8.406;2023-04-26T02:57:20;2.57;;;2.10;;
3407;SDS011;1717;50.240;8.406;2023-04-26T02:59:46;2.57;;;2.03;;
3407;SDS011;1717;50.240;8.406;2023-04-26T03:02:13;2.67;;;2.43;;
3407;SDS011;1717;50.240;8.406;2023-04-26T03:04:40;4.13;;;2.83;;
3407;SDS011;1717;50.240;8.406;2023-04-26T03:07:08;2.90;;;2.30;;
3407;SDS011;1717;50.240;8.406;2023-04-26T03:09:35;2.63;;;2.20;;
3407;SDS011;1717;50.240;8.406;2023-04-26T03:12:03;3.67;;;2.30;;
3407;SDS011;1717;50.240;8.406;2023-04-26T03:14:31;4.53;;;2.40;;
3407;SDS011;1717;50.240;8.406;2023-04-26T03:16:58;6.23;;;2.60;;
3407;SDS011;1717;50.240;8.406;2023-04-26T03:19:25;5.03;;;3.13;;
3407;SDS011;1717;50.240;8.406;2023-04-26T03:21:52;7.27;;;3.17;;
3407;SDS011;1717;50.240;8.406;2023-04-26T03:24:20;4.30;;;2.90;;
3407;SDS011;1717;50.240;8.406;2023-04-26T03:26:47;3.97;;;3.17;;
3407;SDS011;1717;50.240;8.406;2023-04-26T03:29:14;4.80;;;3.20;;
3407;SDS011;1717;50.240;8.406;2023-04-26T03:31:41;4.10;;;3.30;;
3407;SDS011;1717;50.240;8.406;2023-04-26T03:34:08;4.00;;;3.17;;
3407;SDS011;1717;50.240;8.406;2023-04-26T03:36:35;3.87;;;3.50;;
3407;SDS011;1717;50.240;8.406;2023-04-26T03:39:02;7.00;;;3.50;;
3407;SDS011;1717;50.240;8.406;2023-04-26T03:41:31;9.13;;;3.60;;
3407;SDS011;1717;50.240;8.406;2023-04-26T03:43:59;9.27;;;3.77;;
3407;SDS011;1717;50.240;8.406;2023-04-26T03:46:26;3.67;;;3.37;;
3407;SDS011;1717;50.240;8.406;2023-04-26T03:48:53;6.20;;;3.37;;
3407;SDS011;1717;50.240;8.406;2023-04-26T03:51:20;5.07;;;3.90;;
3407;SDS011;1717;50.240;8.406;2023-04-26T03:53:47;8.50;;;4.20;;
3407;SDS011;1717;50.240;8.406;2023-04-26T03:56:14;7.00;;;3.97;;
3407;SDS011;1717;50.240;8.406;2023-04-26T03:58:42;4.30;;;3.87;;
3407;SDS011;1717;50.240;8.406;2023-04-26T04:01:09;10.90;;;3.90;;
3407;SDS011;1717;50.240;8.406;2023-04-26T04:03:36;4.60;;;4.10;;
3407;SDS011;1717;50.240;8.406;2023-04-26T04:06:02;5.13;;;4.10;;
3407;SDS011;1717;50.240;8.406;2023-04-26T04:08:30;8.73;;;4.10;;
3407;SDS011;1717;50.240;8.406;2023-04-26T04:10:57;6.57;;;4.00;;
3407;SDS011;1717;50.240;8.406;2023-04-26T04:13:24;6.60;;;4.60;;
3407;SDS011;1717;50.240;8.406;2023-04-26T04:15:52;5.40;;;4.30;;
3407;SDS011;1717;50.240;8.406;2023-04-26T04:18:19;5.03;;;3.83;;
3407;SDS011;1717;50.240;8.406;2023-04-26T04:20:46;5.40;;;3.83;;
3407;SDS011;1717;50.240;8.406;2023-04-26T04:23:13;6.20;;;4.67;;
3407;SDS011;1717;50.240;8.406;2023-04-26T04:25:39;5.80;;;3.30;;
3407;SDS011;1717;50.240;8.406;2023-04-26T04:28:08;7.60;;;4.47;;
3407;SDS011;1717;50.240;8.406;2023-04-26T04:30:35;6.20;;;3.83;;
3407;SDS011;1717;50.240;8.406;2023-04-26T04:33:03;4.77;;;3.70;;
3407;SDS011;1717;50.240;8.406;2023-04-26T04:35:30;7.80;;;4.03;;
3407;SDS011;1717;50.240;8.406;2023-04-26T04:37:58;7.07;;;4.27;;
3407;SDS011;1717;50.240;8.406;2023-04-26T04:40:26;6.93;;;4.13;;
3407;SDS011;1717;50.240;8.406;2023-04-26T04:42:52;7.50;;;4.40;;
3407;SDS011;1717;50.240;8.406;2023-04-26T04:45:19;5.80;;;4.43;;
3407;SDS011;1717;50.240;8.406;2023-04-26T04:47:46;5.93;;;4.23;;
3407;SDS011;1717;50.240;8.406;2023-04-26T04:50:14;5.10;;;3.23;;
3407;SDS011;1717;50.240;8.406;2023-04-26T04:52:41;4.53;;;3.97;;
3407;SDS011;1717;50.240;8.406;2023-04-26T04:55:08;4.73;;;3.73;;
3407;SDS011;1717;50.240;8.406;2023-04-26T04:57:35;5.90;;;3.80;;
3407;SDS011;1717;50.240;8.406;2023-04-26T05:00:02;12.17;;;4.77;;
3407;SDS011;1717;50.240;8.406;2023-04-26T05:02:34;6.60;;;4.27;;
3407;SDS011;1717;50.240;8.406;2023-04-26T05:05:01;5.93;;;4.17;;
3407;SDS011;1717;50.240;8.406;2023-04-26T05:07:31;5.07;;;3.93;;
3407;SDS011;1717;50.240;8.406;2023-04-26T05:09:58;5.30;;;4.13;;
3407;SDS011;1717;50.240;8.406;2023-04-26T05:12:24;5.53;;;3.93;;
3407;SDS011;1717;50.240;8.406;2023-04-26T05:14:51;5.83;;;4.07;;
3407;SDS011;1717;50.240;8.406;2023-04-26T05:17:18;9.30;;;4.00;;
3407;SDS011;1717;50.240;8.406;2023-04-26T05:19:45;4.77;;;3.03;;
3407;SDS011;1717;50.240;8.406;2023-04-26T05:22:12;7.23;;;3.20;;
3407;SDS011;1717;50.240;8.406;2023-04-26T05:24:44;5.83;;;3.93;;
3407;SDS011;1717;50.240;8.406;2023-04-26T05:27:11;4.30;;;3.73;;
3407;SDS011;1717;50.240;8.406;2023-04-26T05:29:38;6.17;;;4.67;;
3407;SDS011;1717;50.240;8.406;2023-04-26T05:32:05;7.03;;;4.10;;
3407;SDS011;1717;50.240;8.406;2023-04-26T05:34:32;3.60;;;3.23;;
3407;SDS011;1717;50.240;8.406;2023-04-26T05:36:59;7.43;;;3.40;;
3407;SDS011;1717;50.240;8.406;2023-04-26T05:39:26;4.53;;;3.80;;
3407;SDS011;1717;50.240;8.406;2023-04-26T05:41:54;8.00;;;3.30;;
3407;SDS011;1717;50.240;8.406;2023-04-26T05:44:21;5.23;;;2.50;;
3407;SDS011;1717;50.240;8.406;2023-04-26T05:46:48;4.10;;;3.33;;
3407;SDS011;1717;50.240;8.406;2023-04-26T05:49:15;7.27;;;3.17;;
3407;SDS011;1717;50.240;8.406;2023-04-26T05:51:42;5.40;;;3.10;;
3407;SDS011;1717;50.240;8.406;2023-04-26T05:54:09;5.10;;;2.50;;
3407;SDS011;1717;50.240;8.406;2023-04-26T05:56:36;5.40;;;2.53;;
3407;SDS011;1717;50.240;8.406;2023-04-26T05:59:04;5.23;;;2.93;;
3407;SDS011;1717;50.240;8.406;2023-04-26T06:01:31;4.00;;;2.60;;
3407;SDS011;1717;50.240;8.406;2023-04-26T06:03:58;2.70;;;2.13;;
3407;SDS011;1717;50.240;8.406;2023-04-26T06:06:25;7.30;;;2.60;;
3407;SDS011;1717;50.240;8.406;2023-04-26T06:08:52;4.73;;;2.70;;
3407;SDS011;1717;50.240;8.406;2023-04-26T06:11:19;4.00;;;2.70;;
3407;SDS011;1717;50.240;8.406;2023-04-26T06:13:46;4.67;;;2.97;;
3407;SDS011;1717;50.240;8.406;2023-04-26T06:16:14;2.70;;;2.50;;
3407;SDS011;1717;50.240;8.406;2023-04-26T06:18:41;4.20;;;2.60;;
3407;SDS011;1717;50.240;8.406;2023-04-26T06:21:08;3.50;;;2.50;;
3407;SDS011;1717;50.240;8.406;2023-04-26T06:23:35;9.33;;;3.30;;
3407;SDS011;1717;50.240;8.406;2023-04-26T06:26:02;5.97;;;2.47;;
3407;SDS011;1717;50.240;8.406;2023-04-26T06:28:29;2.40;;;2.20;;
3407;SDS011;1717;50.240;8.406;2023-04-26T06:30:56;3.73;;;2.80;;
3407;SDS011;1717;50.240;8.406;2023-04-26T06:33:24;4.07;;;2.80;;
3407;SDS011;1717;50.240;8.406;2023-04-26T06:35:51;5.70;;;3.20;;
3407;SDS011;1717;50.240;8.406;2023-04-26T06:38:18;5.70;;;3.40;;
3407;SDS011;1717;50.240;8.406;2023-04-26T06:40:45;5.60;;;3.10;;
3407;SDS011;1717;50.240;8.406;2023-04-26T06:43:12;7.80;;;3.40;;
3407;SDS011;1717;50.240;8.406;2023-04-26T06:45:38;12.30;;;3.63;;
3407;SDS011;1717;50.240;8.406;2023-04-26T06:48:05;4.27;;;2.90;;
3407;SDS011;1717;50.240;8.406;2023-04-26T06:50:36;6.30;;;3.00;;
3407;SDS011;1717;50.240;8.406;2023-04-26T06:53:03;3.73;;;2.77;;
3407;SDS011;1717;50.240;8.406;2023-04-26T06:55:30;6.07;;;3.20;;
3407;SDS011;1717;50.240;8.406;2023-04-26T06:57:57;2.93;;;2.63;;
3407;SDS011;1717;50.240;8.406;2023-04-26T07:00:24;5.40;;;2.63;;
3407;SDS011;1717;50.240;8.406;2023-04-26T07:02:52;5.00;;;3.17;;
3407;SDS011;1717;50.240;8.406;2023-04-26T07:05:19;4.53;;;2.63;;
3407;SDS011;1717;50.240;8.406;2023-04-26T07:07:47;10.50;;;3.13;;
3407;SDS011;1717;50.240;8.406;2023-04-26T07:10:15;7.17;;;2.90;;
3407;SDS011;1717;50.240;8.406;2023-04-26T07:12:42;2.80;;;2.53;;
3407;SDS011;1717;50.240;8.406;2023-04-26T07:15:09;5.53;;;2.80;;
3407;SDS011;1717;50.240;8.406;2023-04-26T07:17:36;3.23;;;2.63;;
3407;SDS011;1717;50.240;8.406;2023-04-26T07:20:04;4.33;;;3.10;;
3407;SDS011;1717;50.240;8.406;2023-04-26T07:22:32;5.67;;;2.43;;
3407;SDS011;1717;50.240;8.406;2023-04-26T07:25:00;3.00;;;2.63;;
3407;SDS011;1717;50.240;8.406;2023-04-26T07:27:28;3.13;;;2.57;;
3407;SDS011;1717;50.240;8.406;2023-04-26T07:29:56;3.90;;;2.40;;
3407;SDS011;1717;50.240;8.406;2023-04-26T07:32:23;4.60;;;2.30;;
3407;SDS011;1717;50.240;8.406;2023-04-26T07:34:50;4.40;;;2.40;;
3407;SDS011;1717;50.240;8.406;2023-04-26T07:37:17;3.47;;;2.10;;
3407;SDS011;1717;50.240;8.406;2023-04-26T07:39:44;3.03;;;1.90;;
3407;SDS011;1717;50.240;8.406;2023-04-26T07:42:13;5.00;;;2.40;;
3407;SDS011;1717;50.240;8.406;2023-04-26T07:44:40;3.67;;;2.27;;
3407;SDS011;1717;50.240;8.406;2023-04-26T07:47:10;4.20;;;2.00;;
3407;SDS011;1717;50.240;8.406;2023-04-26T07:49:38;4.60;;;2.00;;
3407;SDS011;1717;50.240;8.406;2023-04-26T07:52:05;3.37;;;2.00;;
3407;SDS011;1717;50.240;8.406;2023-04-26T07:54:33;2.90;;;2.10;;
3407;SDS011;1717;50.240;8.406;2023-04-26T07:57:01;5.30;;;2.07;;
3407;SDS011;1717;50.240;8.406;2023-04-26T07:59:29;3.90;;;2.27;;
3407;SDS011;1717;50.240;8.406;2023-04-26T08:01:56;4.47;;;2.40;;
3407;SDS011;1717;50.240;8.406;2023-04-26T08:04:29;6.90;;;1.80;;
3407;SDS011;1717;50.240;8.406;2023-04-26T08:06:57;7.40;;;2.30;;
3407;SDS011;1717;50.240;8.406;2023-04-26T08:09:25;4.67;;;2.27;;
3407;SDS011;1717;50.240;8.406;2023-04-26T08:11:52;6.53;;;2.50;;
3407;SDS011;1717;50.240;8.406;2023-04-26T08:14:19;7.13;;;2.10;;
3407;SDS011;1717;50.240;8.406;2023-04-26T08:16:47;2.57;;;2.10;;
3407;SDS011;1717;50.240;8.406;2023-04-26T08:19:15;3.83;;;2.30;;
3407;SDS011;1717;50.240;8.406;2023-04-26T08:21:42;4.80;;;2.37;;
3407;SDS011;1717;50.240;8.406;2023-04-26T08:24:09;7.87;;;2.90;;
3407;SDS011;1717;50.240;8.406;2023-04-26T08:26:36;3.10;;;2.43;;
3407;SDS011;1717;50.240;8.406;2023-04-26T08:29:03;5.80;;;2.07;;
3407;SDS011;1717;50.240;8.406;2023-04-26T08:31:30;5.20;;;2.60;;
3407;SDS011;1717;50.240;8.406;2023-04-26T08:33:58;5.43;;;2.10;;
3407;SDS011;1717;50.240;8.406;2023-04-26T08:36:25;2.50;;;2.30;;
3407;SDS011;1717;50.240;8.406;2023-04-26T08:38:52;2.83;;;1.83;;
3407;SDS011;1717;50.240;8.406;2023-04-26T08:41:21;3.53;;;2.47;;
3407;SDS011;1717;50.240;8.406;2023-04-26T08:43:49;3.97;;;1.93;;
3407;SDS011;1717;50.240;8.406;2023-04-26T08:46:18;2.00;;;1.70;;
3407;SDS011;1717;50.240;8.406;2023-04-26T08:48:46;7.20;;;2.60;;
3407;SDS011;1717;50.240;8.406;2023-04-26T08:51:21;3.73;;;2.20;;
3407;SDS011;1717;50.240;8.406;2023-04-26T08:53:49;5.37;;;2.47;;
3407;SDS011;1717;50.240;8.406;2023-04-26T08:56:18;3.13;;;2.37;;
3407;SDS011;1717;50.240;8.406;2023-04-26T08:58:48;6.53;;;2.87;;
3407;SDS011;1717;50.240;8.406;2023-04-26T09:01:16;5.20;;;2.13;;
3407;SDS011;1717;50.240;8.406;2023-04-26T09:03:45;7.80;;;2.50;;
3407;SDS011;1717;50.240;8.406;2023-04-26T09:06:12;7.30;;;2.00;;
3407;SDS011;1717;50.240;8.406;2023-04-26T09:08:41;6.13;;;3.33;;
3407;SDS011;1717;50.240;8.406;2023-04-26T09:11:09;6.20;;;2.23;;
3407;SDS011;1717;50.240;8.406;2023-04-26T09:13:36;2.23;;;2.03;;
3407;SDS011;1717;50.240;8.406;2023-04-26T09:16:04;4.70;;;2.37;;
3407;SDS011;1717;50.240;8.406;2023-04-26T09:18:31;5.47;;;3.30;;
3407;SDS011;1717;50.240;8.406;2023-04-26T09:21:02;5.03;;;2.77;;
3407;SDS011;1717;50.240;8.406;2023-04-26T09:23:30;4.30;;;2.50;;
3407;SDS011;1717;50.240;8.406;2023-04-26T09:28:45;8.60;;;2.80;;
3407;SDS011;1717;50.240;8.406;2023-04-26T09:31:12;4.30;;;2.70;;
3407;SDS011;1717;50.240;8.406;2023-04-26T09:34:01;9.83;;;2.57;;
3407;SDS011;1717;50.240;8.406;2023-04-26T09:36:28;5.40;;;2.23;;
3407;SDS011;1717;50.240;8.406;2023-04-26T09:38:55;4.33;;;2.60;;
3407;SDS011;1717;50.240;8.406;2023-04-26T09:41:24;8.20;;;2.80;;
3407;SDS011;1717;50.240;8.406;2023-04-26T09:44:18;4.00;;;2.70;;
3407;SDS011;1717;50.240;8.406;2023-04-26T09:46:56;3.87;;;2.40;;
3407;SDS011;1717;50.240;8.406;2023-04-26T09:49:24;3.03;;;2.60;;
3407;SDS011;1717;50.240;8.406;2023-04-26T09:52:01;6.90;;;2.57;;
3407;SDS011;1717;50.240;8.406;2023-04-26T09:54:39;7.07;;;2.50;;
3407;SDS011;1717;50.240;8.406;2023-04-26T09:57:08;7.27;;;3.83;;
3407;SDS011;1717;50.240;8.406;2023-04-26T09:59:39;5.50;;;2.90;;
3407;SDS011;1717;50.240;8.406;2023-04-26T10:02:08;5.03;;;2.90;;
3407;SDS011;1717;50.240;8.406;2023-04-26T10:04:38;2.80;;;2.50;;
3407;SDS011;1717;50.240;8.406;2023-04-26T10:07:07;4.93;;;2.77;;
3407;SDS011;1717;50.240;8.406;2023-04-26T10:09:34;4.20;;;2.40;;
3407;SDS011;1717;50.240;8.406;2023-04-26T10:12:01;5.33;;;2.63;;
3407;SDS011;1717;50.240;8.406;2023-04-26T10:14:30;4.77;;;2.23;;
3407;SDS011;1717;50.240;8.406;2023-04-26T10:16:57;5.30;;;2.70;;
3407;SDS011;1717;50.240;8.406;2023-04-26T10:19:24;7.00;;;2.67;;
3407;SDS011;1717;50.240;8.406;2023-04-26T10:21:51;5.07;;;2.20;;
3407;SDS011;1717;50.240;8.406;2023-04-26T10:24:22;5.20;;;2.43;;
3407;SDS011;1717;50.240;8.406;2023-04-26T10:26:49;4.57;;;3.00;;
3407;SDS011;1717;50.240;8.406;2023-04-26T10:29:19;4.90;;;2.50;;
3407;SDS011;1717;50.240;8.406;2023-04-26T10:32:07;7.30;;;2.90;;
3407;SDS011;1717;50.240;8.406;2023-04-26T10:34:35;7.07;;;3.10;;
3407;SDS011;1717;50.240;8.406;2023-04-26T10:37:06;5.33;;;3.20;;
3407;SDS011;1717;50.240;8.406;2023-04-26T10:39:36;3.53;;;2.50;;
3407;SDS011;1717;50.240;8.406;2023-04-26T10:42:16;4.00;;;2.77;;
3407;SDS011;1717;50.240;8.406;2023-04-26T10:44:48;3.80;;;2.50;;
3407;SDS011;1717;50.240;8.406;2023-04-26T10:47:27;5.03;;;2.00;;
3407;SDS011;1717;50.240;8.406;2023-04-26T10:50:06;4.87;;;3.20;;
3407;SDS011;1717;50.240;8.406;2023-04-26T10:52:34;4.23;;;2.37;;
3407;SDS011;1717;50.240;8.406;2023-04-26T10:55:01;9.83;;;2.73;;
3407;SDS011;1717;50.240;8.406;2023-04-26T10:57:46;5.30;;;3.20;;
3407;SDS011;1717;50.240;8.406;2023-04-26T11:03:03;5.40;;;2.60;;
3407;SDS011;1717;50.240;8.406;2023-04-26T11:05:55;6.83;;;2.57;;
3407;SDS011;1717;50.240;8.406;2023-04-26T11:08:25;4.93;;;2.80;;
3407;SDS011;1717;50.240;8.406;2023-04-26T11:10:58;2.77;;;2.50;;
3407;SDS011;1717;50.240;8.406;2023-04-26T11:13:33;7.90;;;2.43;;
3407;SDS011;1717;50.240;8.406;2023-04-26T11:16:02;4.57;;;2.90;;
3407;SDS011;1717;50.240;8.406;2023-04-26T11:18:32;3.30;;;2.17;;
3407;SDS011;1717;50.240;8.406;2023-04-26T11:21:00;5.40;;;3.03;;
3407;SDS011;1717;50.240;8.406;2023-04-26T11:23:28;6.80;;;3.50;;
3407;SDS011;1717;50.240;8.406;2023-04-26T11:25:56;6.13;;;2.77;;
3407;SDS011;1717;50.240;8.406;2023-04-26T11:28:23;4.20;;;2.73;;
3407;SDS011;1717;50.240;8.406;2023-04-26T11:30:50;5.40;;;2.07;;
3407;SDS011;1717;50.240;8.406;2023-04-26T11:33:17;5.30;;;2.93;;
3407;SDS011;1717;50.240;8.406;2023-04-26T11:35:48;2.50;;;2.20;;
3407;SDS011;1717;50.240;8.406;2023-04-26T11:38:15;5.00;;;2.50;;
3407;SDS011;1717;50.240;8.406;2023-04-26T11:40:43;3.50;;;2.23;;
3407;SDS011;1717;50.240;8.406;2023-04-26T11:43:10;2.70;;;2.10;;
3407;SDS011;1717;50.240;8.406;2023-04-26T11:45:39;6.13;;;2.57;;
3407;SDS011;1717;50.240;8.406;2023-04-26T11:48:06;3.27;;;2.20;;
3407;SDS011;1717;50.240;8.406;2023-04-26T11:50:37;3.70;;;2.57;;
3407;SDS011;1717;50.240;8.406;2023-04-26T11:53:09;7.00;;;2.83;;
3407;SDS011;1717;50.240;8.406;2023-04-26T11:55:39;3.67;;;2.20;;
3407;SDS011;1717;50.240;8.406;2023-04-26T11:58:10;3.60;;;2.07;;
3407;SDS011;1717;50.240;8.406;2023-04-26T12:00:56;3.97;;;2.30;;
3407;SDS011;1717;50.240;8.406;2023-04-26T12:03:28;4.57;;;2.13;;
3407;SDS011;1717;50.240;8.406;2023-04-26T12:06:01;2.13;;;1.93;;
3407;SDS011;1717;50.240;8.406;2023-04-26T12:08:30;3.33;;;2.10;;
3407;SDS011;1717;50.240;8.406;2023-04-26T12:10:58;4.17;;;2.50;;
3407;SDS011;1717;50.240;8.406;2023-04-26T12:13:26;9.03;;;3.90;;
3407;SDS011;1717;50.240;8.406;2023-04-26T12:15:54;2.30;;;1.87;;
3407;SDS011;1717;50.240;8.406;2023-04-26T12:18:21;3.90;;;2.10;;
3407;SDS011;1717;50.240;8.406;2023-04-26T12:20:56;4.30;;;2.43;;
3407;SDS011;1717;50.240;8.406;2023-04-26T12:23:23;3.30;;;2.90;;
3407;SDS011;1717;50.240;8.406;2023-04-26T12:25:52;2.70;;;2.10;;
3407;SDS011;1717;50.240;8.406;2023-04-26T12:28:20;6.40;;;2.30;;
3407;SDS011;1717;50.240;8.406;2023-04-26T12:30:48;3.47;;;2.17;;
3407;SDS011;1717;50.240;8.406;2023-04-26T12:33:15;2.97;;;2.17;;
3407;SDS011;1717;50.240;8.406;2023-04-26T12:35:43;2.37;;;1.70;;
3407;SDS011;1717;50.240;8.406;2023-04-26T12:38:11;3.60;;;3.00;;
3407;SDS011;1717;50.240;8.406;2023-04-26T12:40:40;3.30;;;2.20;;
3407;SDS011;1717;50.240;8.406;2023-04-26T12:43:08;3.00;;;1.83;;
3407;SDS011;1717;50.240;8.406;2023-04-26T12:45:35;5.27;;;2.23;;
3407;SDS011;1717;50.240;8.406;2023-04-26T12:48:02;3.00;;;2.20;;
3407;SDS011;1717;50.240;8.406;2023-04-26T12:50:30;7.43;;;2.60;;
3407;SDS011;1717;50.240;8.406;2023-04-26T12:52:57;6.00;;;2.50;;
3407;SDS011;1717;50.240;8.406;2023-04-26T12:55:24;6.10;;;2.67;;
3407;SDS011;1717;50.240;8.406;2023-04-26T12:57:51;3.80;;;2.70;;
3407;SDS011;1717;50.240;8.406;2023-04-26T13:00:19;2.27;;;2.07;;
3407;SDS011;1717;50.240;8.406;2023-04-26T13:02:46;3.80;;;2.30;;
3407;SDS011;1717;50.240;8.406;2023-04-26T13:05:13;6.83;;;2.13;;
3407;SDS011;1717;50.240;8.406;2023-04-26T13:07:40;4.03;;;2.73;;
3407;SDS011;1717;50.240;8.406;2023-04-26T13:10:08;3.20;;;2.20;;
3407;SDS011;1717;50.240;8.406;2023-04-26T13:12:35;2.50;;;2.20;;
3407;SDS011;1717;50.240;8.406;2023-04-26T13:15:03;4.83;;;2.10;;
3407;SDS011;1717;50.240;8.406;2023-04-26T13:17:32;4.37;;;2.63;;
3407;SDS011;1717;50.240;8.406;2023-04-26T13:20:00;7.73;;;2.40;;
3407;SDS011;1717;50.240;8.406;2023-04-26T13:22:28;5.40;;;2.50;;
3407;SDS011;1717;50.240;8.406;2023-04-26T13:24:55;3.50;;;2.10;;
3407;SDS011;1717;50.240;8.406;2023-04-26T13:27:22;4.47;;;2.30;;
3407;SDS011;1717;50.240;8.406;2023-04-26T13:29:49;3.60;;;2.73;;
3407;SDS011;1717;50.240;8.406;2023-04-26T13:32:16;5.50;;;3.07;;
3407;SDS011;1717;50.240;8.406;2023-04-26T13:34:44;9.13;;;2.50;;
3407;SDS011;1717;50.240;8.406;2023-04-26T13:37:11;4.33;;;2.27;;
3407;SDS011;1717;50.240;8.406;2023-04-26T13:39:38;9.17;;;2.33;;
3407;SDS011;1717;50.240;8.406;2023-04-26T13:42:05;5.50;;;2.50;;
3407;SDS011;1717;50.240;8.406;2023-04-26T13:44:32;2.60;;;2.40;;
3407;SDS011;1717;50.240;8.406;2023-04-26T13:46:59;3.50;;;2.10;;
3407;SDS011;1717;50.240;8.406;2023-04-26T13:49:26;5.23;;;2.43;;
3407;SDS011;1717;50.240;8.406;2023-04-26T13:51:54;4.17;;;2.77;;
3407;SDS011;1717;50.240;8.406;2023-04-26T13:54:21;3.87;;;2.50;;
3407;SDS011;1717;50.240;8.406;2023-04-26T13:56:49;3.70;;;2.60;;
3407;SDS011;1717;50.240;8.406;2023-04-26T13:59:16;4.87;;;2.70;;
3407;SDS011;1717;50.240;8.406;2023-04-26T14:01:43;4.63;;;3.13;;
3407;SDS011;1717;50.240;8.406;2023-04-26T14:04:10;6.43;;;2.60;;
3407;SDS011;1717;50.240;8.406;2023-04-26T14:06:37;2.90;;;2.30;;
3407;SDS011;1717;50.240;8.406;2023-04-26T14:09:05;5.43;;;2.83;;
3407;SDS011;1717;50.240;8.406;2023-04-26T14:11:32;3.07;;;2.80;;
3407;SDS011;1717;50.240;8.406;2023-04-26T14:13:59;5.37;;;2.60;;
3407;SDS011;1717;50.240;8.406;2023-04-26T14:16:26;4.37;;;2.57;;
3407;SDS011;1717;50.240;8.406;2023-04-26T14:18:53;6.23;;;2.93;;
3407;SDS011;1717;50.240;8.406;2023-04-26T14:21:20;6.23;;;2.60;;
3407;SDS011;1717;50.240;8.406;2023-04-26T14:23:46;6.37;;;3.00;;
3407;SDS011;1717;50.240;8.406;2023-04-26T14:26:15;5.50;;;2.43;;
3407;SDS011;1717;50.240;8.406;2023-04-26T14:28:42;3.13;;;2.70;;
3407;SDS011;1717;50.240;8.406;2023-04-26T14:31:09;5.27;;;2.70;;
3407;SDS011;1717;50.240;8.406;2023-04-26T14:33:36;6.30;;;2.50;;
3407;SDS011;1717;50.240;8.406;2023-04-26T14:36:04;2.93;;;2.20;;
3407;SDS011;1717;50.240;8.406;2023-04-26T14:38:32;4.23;;;2.50;;
3407;SDS011;1717;50.240;8.406;2023-04-26T14:40:59;10.43;;;3.10;;
3407;SDS011;1717;50.240;8.406;2023-04-26T14:43:27;3.50;;;2.40;;
3407;SDS011;1717;50.240;8.406;2023-04-26T14:45:54;4.90;;;2.80;;
3407;SDS011;1717;50.240;8.406;2023-04-26T14:48:21;4.77;;;2.30;;
3407;SDS011;1717;50.240;8.406;2023-04-26T14:50:47;3.97;;;3.27;;
3407;SDS011;1717;50.240;8.406;2023-04-26T14:53:14;3.70;;;2.97;;
3407;SDS011;1717;50.240;8.406;2023-04-26T14:55:41;2.93;;;2.17;;
3407;SDS011;1717;50.240;8.406;2023-04-26T14:58:08;5.57;;;2.47;;
3407;SDS011;1717;50.240;8.406;2023-04-26T15:00:36;5.00;;;2.60;;
3407;SDS011;1717;50.240;8.406;2023-04-26T15:03:03;4.10;;;2.50;;
3407;SDS011;1717;50.240;8.406;2023-04-26T15:05:30;4.37;;;2.53;;
3407;SDS011;1717;50.240;8.406;2023-04-26T15:07:57;5.63;;;2.13;;
3407;SDS011;1717;50.240;8.406;2023-04-26T15:10:25;3.33;;;2.50;;
3407;SDS011;1717;50.240;8.406;2023-04-26T15:12:52;4.03;;;2.60;;
3407;SDS011;1717;50.240;8.406;2023-04-26T15:15:18;5.20;;;2.80;;
3407;SDS011;1717;50.240;8.406;2023-04-26T15:17:48;5.23;;;3.50;;
3407;SDS011;1717;50.240;8.406;2023-04-26T15:20:15;5.70;;;2.80;;
3407;SDS011;1717;50.240;8.406;2023-04-26T15:22:42;3.67;;;2.40;;
3407;SDS011;1717;50.240;8.406;2023-04-26T15:25:09;3.97;;;2.40;;